»·PEaware :: N364CM KSMX-KBFL

N364CM :: KSMX-KBFL

FLIGHT INFORMATION

Flight Status: Arrived
Operator: Privately registered:
United States
More flights under this callsign
Pilot: Brian S. (32023)
Aircraft: CESSNA 172 SKYHAWK
(C172)
More flights by this aircraft type
Origin: KSMX Santa Maria Pub/Capt Hancock
United States
Destination: KBFL Meadows
United States
More flights between these airports :: More routes between these airports
Route:
File this flight plan on PilotEdge
Remarks:
Altitude:
(Current/Filed)
3,500ft
Speed:
(Current/Filed)
135kts
Departed: 08-Jan-21 07:14 PM
Arrived: 08-Jan-21 07:59 PM
Distance/Time
Traveled:
76nm/0:45
Distance/Time
To Go:
Arrived

Flight Plot

Page will automatically refresh every two minutes.


Map Options




Map Legend


Flown Route
Filed Route
Departure Airport
Arrival Airport
Navaid (VOR, NDB)
Fix

Horizontal Profiles

Position Reports

Time Latitude Longitude Heading Altitude Ground
Speed
08-Jan-21 19:07 34.896952 -120.446159 273 265ft 0kts
08-Jan-21 19:08 34.896952 -120.446159 273 265ft 0kts
08-Jan-21 19:09 34.896952 -120.446159 273 265ft 0kts
08-Jan-21 19:10 34.896954 -120.446226 272 265ft 2kts
08-Jan-21 19:11 34.895837 -120.447021 135 265ft 9kts
08-Jan-21 19:12 34.893706 -120.445201 180 265ft 0kts
08-Jan-21 19:13 34.895084 -120.448621 315 265ft 56kts
08-Jan-21 19:14 34.910711 -120.467032 328 871ft 88kts
08-Jan-21 19:15 34.932098 -120.455472 45 1700ft 91kts
08-Jan-21 19:16 34.948695 -120.431809 52 2478ft 94kts
08-Jan-21 19:17 34.964645 -120.406212 52 3199ft 96kts
08-Jan-21 19:18 34.983965 -120.375166 52 3291ft 122kts
08-Jan-21 19:19 35.003150 -120.344323 52 3777ft 110kts
08-Jan-21 19:20 35.021090 -120.315480 52 4261ft 97kts
08-Jan-21 19:21 35.036165 -120.291272 52 4737ft 83kts
08-Jan-21 19:22 35.049251 -120.270322 52 5212ft 72kts
08-Jan-21 19:23 35.065050 -120.244965 52 5247ft 110kts
08-Jan-21 19:24 35.077620 -120.209477 68 5244ft 116kts
08-Jan-21 19:25 35.089370 -120.172431 68 5243ft 117kts
08-Jan-21 19:26 35.101118 -120.135172 68 5195ft 120kts
08-Jan-21 19:27 35.112995 -120.097401 68 5179ft 117kts
08-Jan-21 19:29 35.124712 -120.060087 68 5179ft 117kts
08-Jan-21 19:30 35.136353 -120.022964 68 5179ft 117kts
08-Jan-21 19:31 35.148033 -119.985672 68 5179ft 117kts
08-Jan-21 19:32 35.159683 -119.948425 68 5179ft 117kts
08-Jan-21 19:33 35.171374 -119.911354 68 5179ft 117kts
08-Jan-21 19:34 35.183784 -119.874436 67 5179ft 117kts
08-Jan-21 19:35 35.196419 -119.837636 66 5179ft 117kts
08-Jan-21 19:36 35.209047 -119.800859 66 5179ft 117kts
08-Jan-21 19:37 35.221662 -119.764128 66 5179ft 117kts
08-Jan-21 19:38 35.233670 -119.727094 77 5180ft 117kts
08-Jan-21 19:39 35.239933 -119.687858 75 5179ft 117kts
08-Jan-21 19:40 35.247579 -119.649071 76 5179ft 117kts
08-Jan-21 19:41 35.254803 -119.610222 76 5179ft 117kts
08-Jan-21 19:42 35.262760 -119.570240 73 4834ft 124kts
08-Jan-21 19:43 35.272263 -119.529208 73 4335ft 125kts
08-Jan-21 19:43 35.280436 -119.495014 70 3919ft 125kts
08-Jan-21 19:45 35.294270 -119.448000 69 3336ft 126kts
08-Jan-21 19:46 35.305818 -119.408831 69 3178ft 117kts
08-Jan-21 19:47 35.316751 -119.371757 69 3179ft 115kts
08-Jan-21 19:47 35.325809 -119.341053 70 3179ft 115kts
08-Jan-21 19:48 35.336701 -119.304134 70 3179ft 115kts
08-Jan-21 19:50 35.348124 -119.260670 73 3179ft 115kts
08-Jan-21 19:51 35.357434 -119.223091 73 3179ft 115kts
08-Jan-21 19:51 35.369855 -119.194269 59 3178ft 115kts
08-Jan-21 19:52 35.386707 -119.158761 57 2710ft 116kts
08-Jan-21 19:53 35.405867 -119.127088 50 2102ft 116kts
08-Jan-21 19:54 35.420625 -119.093506 94 1534ft 102kts
08-Jan-21 19:55 35.414219 -119.071874 141 1263ft 66kts
08-Jan-21 19:56 35.400889 -119.055188 115 1260ft 75kts
08-Jan-21 19:57 35.415679 -119.041340 351 786ft 74kts
08-Jan-21 19:58 35.429331 -119.054296 329 478ft 37kts
08-Jan-21 19:59 35.433185 -119.058955 316 483ft 18kts
08-Jan-21 20:00 35.433880 -119.060874 145 483ft 5kts
08-Jan-21 20:01 35.431529 -119.058039 136 478ft 16kts
08-Jan-21 20:02 35.428591 -119.054518 149 475ft 5kts
08-Jan-21 20:03 35.427992 -119.055243 277 472ft 0kts

Navigation Log

Ident Type
Flight plan parsing failed, navigation log unavailable